Time;durP1;ratioP1;P1;durP2;ratioP2;P2;SDS_P1;SDS_P2;PMS_P1;PMS_P2;Temp;Humidity;BMP_temperature;BMP_pressure;BME280_temperature;BME280_humidity;BME280_pressure;Samples;Min_cycle;Max_cycle;Signal;HPM_P1;HPM_P2
2022/11/26 00:00:20;;;;;;;129.50;93.50;;;20.50;49.60;;;;;;4695656;59;21004;-38
2022/11/26 00:05:21;;;;;;;129.15;92.25;;;20.50;49.60;;;;;;4695431;59;21004;-37
2022/11/26 00:10:25;;;;;;;124.65;92.25;;;20.60;49.60;;;;;;4701189;55;21008;-30
2022/11/26 00:15:28;;;;;;;130.63;92.72;;;20.50;49.50;;;;;;4760902;55;21143;-38
2022/11/26 00:20:30;;;;;;;128.85;91.50;;;20.50;49.50;;;;;;4859571;55;21084;-38
2022/11/26 00:25:55;;;;;;;124.57;91.15;;;20.50;49.50;;;;;;4752458;55;21513;-39
2022/11/26 00:30:58;;;;;;;121.05;89.43;;;20.50;49.60;;;;;;4795775;55;21008;-31
2022/11/26 00:36:25;;;;;;;120.07;87.20;;;20.50;49.50;;;;;;4851004;55;21012;-34
2022/11/26 00:41:29;;;;;;;;;;;20.50;49.40;;;;;;4732013;55;21044;-30
2022/11/26 00:46:30;;;;;;;124.25;90.60;;;20.50;49.60;;;;;;4778952;55;20061;-31
2022/11/26 00:51:31;;;;;;;120.55;86.28;;;20.50;49.50;;;;;;4694848;59;21036;-44
2022/11/26 00:56:32;;;;;;;122.47;88.05;;;20.50;49.50;;;;;;4707545;55;21530;-47
2022/11/26 01:01:33;;;;;;;122.45;88.28;;;20.50;49.50;;;;;;4746493;55;21486;-44
2022/11/26 01:06:37;;;;;;;120.22;83.87;;;20.50;49.40;;;;;;4702351;55;21016;-49
2022/11/26 01:11:38;;;;;;;123.18;88.00;;;20.50;49.40;;;;;;4865926;55;20996;-47
2022/11/26 01:16:41;;;;;;;118.15;87.10;;;20.50;49.40;;;;;;4818613;55;21020;-42
2022/11/26 01:21:42;;;;;;;120.72;86.22;;;20.50;49.50;;;;;;4694732;59;21510;-44
2022/11/26 01:26:44;;;;;;;119.57;86.25;;;20.50;49.30;;;;;;4939927;55;21063;-31
2022/11/26 01:31:45;;;;;;;117.30;83.43;;;20.50;49.40;;;;;;4921048;55;20988;-31
2022/11/26 01:36:46;;;;;;;117.85;85.57;;;20.50;49.30;;;;;;5014032;55;21059;-29
2022/11/26 01:48:37;;;;;;;116.18;84.37;;;20.50;49.40;;;;;;4964935;55;21036;-29
2022/11/26 01:53:58;;;;;;;115.88;83.37;;;20.50;49.30;;;;;;4694632;59;21059;-38
2022/11/26 01:59:11;;;;;;;113.62;82.55;;;20.50;49.30;;;;;;4695490;59;20988;-37
2022/11/26 02:04:28;;;;;;;112.90;82.20;;;20.50;49.20;;;;;;4820909;55;21494;-41
2022/11/26 02:09:29;;;;;;;114.20;80.53;;;20.50;49.20;;;;;;4695316;59;21056;-34
2022/11/26 02:14:34;;;;;;;114.53;82.05;;;20.50;49.20;;;;;;4704650;55;21071;-46
2022/11/26 02:26:43;;;;;;;110.10;80.18;;;20.50;49.10;;;;;;4729185;55;21522;-35
2022/11/26 02:32:12;;;;;;;107.70;79.70;;;20.50;49.10;;;;;;5086616;55;21503;-41
2022/11/26 02:37:26;;;;;;;104.30;76.68;;;20.50;49.00;;;;;;4781556;55;21072;-35
2022/11/26 02:42:30;;;;;;;105.68;76.07;;;20.50;49.00;;;;;;5027315;55;21092;-47
2022/11/26 02:47:32;;;;;;;106.78;77.00;;;20.50;49.00;;;;;;4786299;55;21063;-46
2022/11/26 02:52:36;;;;;;;108.75;79.25;;;20.40;49.00;;;;;;4812657;55;21032;-45
2022/11/26 02:58:10;;;;;;;103.47;75.85;;;20.40;48.90;;;;;;4712233;55;21008;-32
2022/11/26 03:03:22;;;;;;;104.53;76.53;;;20.50;48.90;;;;;;4719041;55;21060;-40
2022/11/26 03:08:25;;;;;;;105.70;74.50;;;20.40;48.90;;;;;;4695160;59;21475;-35
2022/11/26 03:13:26;;;;;;;102.15;72.53;;;20.40;48.80;;;;;;5169458;55;21015;-45
2022/11/26 03:18:27;;;;;;;99.22;73.07;;;20.40;48.90;;;;;;4727273;55;21007;-37
2022/11/26 03:23:27;;;;;;;100.38;72.85;;;20.50;48.90;;;;;;4757024;55;21020;-43
2022/11/26 03:28:29;;;;;;;99.10;73.03;;;20.40;48.80;;;;;;4820877;55;21055;-42
2022/11/26 03:33:29;;;;;;;97.85;70.68;;;20.40;48.80;;;;;;5024034;55;21553;-42
2022/11/26 03:38:30;;;;;;;94.68;69.45;;;20.40;48.90;;;;;;4986385;55;21047;-41
2022/11/26 03:43:31;;;;;;;96.50;70.78;;;20.50;48.90;;;;;;4694601;59;21076;-37
2022/11/26 03:48:32;;;;;;;94.72;68.43;;;20.40;48.90;;;;;;4695212;59;21059;-48
2022/11/26 03:53:33;;;;;;;96.82;69.70;;;20.50;48.70;;;;;;4694796;59;21032;-38
2022/11/26 03:58:34;;;;;;;92.62;68.03;;;20.50;48.90;;;;;;4717120;55;21447;-32
2022/11/26 04:03:35;;;;;;;89.05;66.70;;;20.40;48.90;;;;;;4872268;55;21083;-33
2022/11/26 04:08:36;;;;;;;95.55;68.28;;;20.50;48.90;;;;;;4784751;55;21051;-29
2022/11/26 04:13:37;;;;;;;91.60;67.72;;;20.50;48.90;;;;;;5043582;55;21055;-34
2022/11/26 04:18:38;;;;;;;87.57;64.12;;;20.40;48.60;;;;;;4695235;59;21466;-31
2022/11/26 04:23:39;;;;;;;86.78;64.47;;;20.40;48.80;;;;;;4723815;55;21044;-42
2022/11/26 04:28:39;;;;;;;86.12;64.45;;;20.40;48.80;;;;;;4872790;55;21477;-28
2022/11/26 04:33:41;;;;;;;85.05;63.97;;;20.50;48.70;;;;;;4895933;55;21000;-28
2022/11/26 04:38:42;;;;;;;90.05;65.35;;;20.40;48.70;;;;;;4862118;55;21099;-34
2022/11/26 04:43:42;;;;;;;83.90;61.90;;;20.40;48.60;;;;;;4887766;55;21071;-35
2022/11/26 04:48:43;;;;;;;86.97;62.88;;;20.40;48.70;;;;;;4812054;55;21011;-37
2022/11/26 04:53:44;;;;;;;82.37;60.45;;;20.40;48.50;;;;;;4936607;55;21044;-38
2022/11/26 04:58:45;;;;;;;83.85;61.70;;;20.50;48.60;;;;;;4888206;55;21597;-40
2022/11/26 05:03:46;;;;;;;85.35;62.15;;;20.40;48.40;;;;;;4694330;56;21534;-36
2022/11/26 05:08:46;;;;;;;74.20;56.20;;;20.40;48.40;;;;;;4933395;55;21083;-38
2022/11/26 05:13:47;;;;;;;82.97;59.85;;;20.40;48.40;;;;;;5150451;55;21140;-37
2022/11/26 05:18:48;;;;;;;77.93;57.25;;;20.40;48.40;;;;;;4760674;55;21008;-46
2022/11/26 05:23:49;;;;;;;78.30;59.13;;;20.40;48.50;;;;;;4852787;55;21032;-41
2022/11/26 05:28:49;;;;;;;79.85;58.13;;;20.40;48.50;;;;;;4841106;55;21536;-47
2022/11/26 05:33:50;;;;;;;78.40;57.70;;;20.40;48.50;;;;;;4958667;55;21491;-40
2022/11/26 05:38:51;;;;;;;76.28;57.38;;;20.40;48.40;;;;;;4706160;55;21048;-40
2022/11/26 05:43:52;;;;;;;76.53;57.42;;;20.40;48.40;;;;;;4875459;55;21039;-36
2022/11/26 05:48:53;;;;;;;77.97;58.58;;;20.40;48.50;;;;;;4744464;55;20992;-39
2022/11/26 05:53:53;;;;;;;78.12;57.42;;;20.40;48.40;;;;;;4731473;55;21048;-35
2022/11/26 05:58:54;;;;;;;73.68;53.72;;;20.40;48.30;;;;;;4936839;55;21594;-34
2022/11/26 06:03:55;;;;;;;69.50;52.85;;;20.40;48.30;;;;;;5014908;55;21043;-45
2022/11/26 06:08:56;;;;;;;73.25;55.95;;;20.40;48.90;;;;;;4855450;55;21008;-33
2022/11/26 06:13:57;;;;;;;72.43;53.47;;;20.40;48.20;;;;;;4773433;55;21302;-31
2022/11/26 06:18:58;;;;;;;73.97;56.15;;;20.40;48.80;;;;;;4770936;55;21079;-35
2022/11/26 06:23:58;;;;;;;69.00;53.28;;;20.40;48.10;;;;;;4803059;55;21063;-39
2022/11/26 06:28:59;;;;;;;69.35;53.95;;;20.40;48.10;;;;;;4695059;59;21012;-35
2022/11/26 06:34:00;;;;;;;72.03;53.38;;;20.40;48.10;;;;;;5106646;55;21028;-44
2022/11/26 06:39:01;;;;;;;70.22;52.20;;;20.40;48.10;;;;;;4695112;59;21000;-31
2022/11/26 06:44:02;;;;;;;72.25;53.40;;;20.40;48.00;;;;;;4924809;55;21020;-33
2022/11/26 06:49:04;;;;;;;69.60;50.33;;;20.40;48.00;;;;;;4840145;55;21011;-41
2022/11/26 06:54:05;;;;;;;73.60;54.97;;;20.40;48.00;;;;;;4776809;55;21020;-31
2022/11/26 06:59:06;;;;;;;71.60;53.83;;;20.40;47.90;;;;;;4694530;59;21072;-44
2022/11/26 07:04:06;;;;;;;71.65;53.58;;;20.40;47.90;;;;;;5087146;55;21083;-29
2022/11/26 07:09:09;;;;;;;71.68;53.95;;;20.40;47.90;;;;;;4773708;55;21000;-31
2022/11/26 07:14:10;;;;;;;70.32;53.90;;;20.40;47.80;;;;;;4695061;59;21129;-38
2022/11/26 07:19:13;;;;;;;75.60;55.63;;;20.40;48.30;;;;;;4775584;55;21008;-39
2022/11/26 07:24:14;;;;;;;74.15;56.30;;;20.40;47.70;;;;;;5027797;55;21577;-28
2022/11/26 07:29:15;;;;;;;76.97;55.50;;;20.40;47.70;;;;;;4809262;55;21052;-36
2022/11/26 07:34:16;;;;;;;77.45;56.17;;;20.40;47.60;;;;;;4712752;55;21024;-38
2022/11/26 07:39:16;;;;;;;78.35;56.13;;;20.40;47.60;;;;;;4755758;55;21398;-41
2022/11/26 07:44:17;;;;;;;78.75;56.75;;;20.40;48.10;;;;;;4694334;56;21079;-34
2022/11/26 07:49:18;;;;;;;77.60;57.55;;;20.40;47.50;;;;;;4694724;59;21007;-39
2022/11/26 07:54:19;;;;;;;77.35;57.53;;;20.40;47.40;;;;;;4820551;55;21040;-43
2022/11/26 07:59:21;;;;;;;83.18;57.90;;;20.40;47.40;;;;;;4750294;55;21092;-41
2022/11/26 08:04:22;;;;;;;83.25;60.12;;;20.40;47.40;;;;;;4744350;55;21510;-32
2022/11/26 08:09:22;;;;;;;80.03;57.78;;;20.40;47.30;;;;;;4694809;59;21145;-43
2022/11/26 08:14:23;;;;;;;81.30;60.53;;;20.40;47.40;;;;;;5017717;55;21012;-29
2022/11/26 08:19:24;;;;;;;87.40;61.37;;;20.40;47.30;;;;;;4829270;55;21052;-37
2022/11/26 08:24:25;;;;;;;89.13;62.30;;;20.40;47.20;;;;;;4776846;55;21040;-39
2022/11/26 08:29:26;;;;;;;95.20;62.58;;;20.40;47.30;;;;;;4792184;55;21055;-33
2022/11/26 08:34:27;;;;;;;87.37;61.50;;;20.40;47.20;;;;;;4917190;55;21011;-30
2022/11/26 08:39:27;;;;;;;83.30;59.72;;;20.40;47.20;;;;;;4805182;55;21039;-44
2022/11/26 08:44:28;;;;;;;87.88;61.83;;;20.40;47.10;;;;;;4693987;59;21087;-43
2022/11/26 08:49:29;;;;;;;83.95;61.97;;;20.40;47.20;;;;;;5169364;55;21526;-39
2022/11/26 08:54:30;;;;;;;84.13;62.55;;;20.40;47.20;;;;;;4975179;55;21116;-45
2022/11/26 08:59:31;;;;;;;88.57;64.37;;;20.40;47.20;;;;;;4972255;55;21052;-31
2022/11/26 09:04:32;;;;;;;90.95;64.47;;;20.40;47.20;;;;;;4752388;55;21040;-32
2022/11/26 09:09:32;;;;;;;90.32;65.15;;;20.40;47.30;;;;;;4907935;55;21083;-41
2022/11/26 09:14:39;;;;;;;85.68;64.90;;;20.40;47.20;;;;;;4695145;59;21558;-45
2022/11/26 09:19:40;;;;;;;90.95;67.00;;;20.40;47.10;;;;;;4895650;55;21020;-40
2022/11/26 09:24:41;;;;;;;94.00;67.43;;;20.40;47.00;;;;;;4860049;55;21606;-35
2022/11/26 09:29:42;;;;;;;94.43;68.72;;;20.40;47.10;;;;;;4695066;56;20996;-38
2022/11/26 09:34:43;;;;;;;95.95;70.60;;;20.40;47.20;;;;;;4940238;55;20988;-32
2022/11/26 09:39:44;;;;;;;107.68;72.97;;;20.40;47.10;;;;;;4747513;55;21051;-31
2022/11/26 09:45:06;;;;;;;105.93;74.68;;;20.40;47.10;;;;;;4761476;55;21497;-34
2022/11/26 09:50:38;;;;;;;102.65;74.22;;;20.40;47.10;;;;;;4695256;59;21044;-37
2022/11/26 09:55:43;;;;;;;102.68;74.68;;;20.40;47.20;;;;;;4787222;55;21510;-30
2022/11/26 10:00:53;;;;;;;107.15;78.87;;;20.40;47.10;;;;;;4694908;56;21151;-33
2022/11/26 10:09:44;;;;;;;106.85;81.07;;;20.40;47.20;;;;;;4708894;55;21024;-30
2022/11/26 10:15:02;;;;;;;110.63;82.50;;;20.40;47.10;;;;;;5051997;55;21554;-30
2022/11/26 10:20:26;;;;;;;109.82;81.68;;;20.40;47.20;;;;;;4695025;59;20984;-32
2022/11/26 10:25:32;;;;;;;112.62;82.18;;;20.40;47.10;;;;;;4898060;55;21075;-32
2022/11/26 10:30:33;;;;;;;119.82;86.22;;;20.40;47.20;;;;;;4715569;55;21008;-34
2022/11/26 10:35:33;;;;;;;117.90;84.57;;;20.40;47.10;;;;;;5069513;55;21033;-28
2022/11/26 10:40:35;;;;;;;117.50;88.15;;;20.40;47.20;;;;;;4839390;55;20995;-30
2022/11/26 10:45:55;;;;;;;112.30;84.00;;;20.40;47.20;;;;;;4854636;55;21482;-31
2022/11/26 10:51:09;;;;;;;116.25;85.25;;;20.40;47.20;;;;;;4801253;55;21071;-47
2022/11/26 10:56:17;;;;;;;118.18;87.80;;;20.40;47.20;;;;;;4735177;55;21052;-33
2022/11/26 11:01:19;;;;;;;112.97;87.65;;;20.40;47.20;;;;;;4720980;55;21032;-38
2022/11/26 11:06:42;;;;;;;115.97;87.95;;;20.40;47.30;;;;;;4759517;55;21107;-29
2022/11/26 11:11:43;;;;;;;114.90;85.90;;;20.40;47.30;;;;;;4721161;55;21012;-34
2022/11/26 11:16:44;;;;;;;119.75;89.10;;;20.40;47.30;;;;;;4959564;55;21011;-37
2022/11/26 11:21:46;;;;;;;116.50;90.68;;;20.40;47.30;;;;;;4774974;55;21494;-34
2022/11/26 11:26:52;;;;;;;124.57;92.22;;;20.40;47.40;;;;;;4797622;55;21039;-39
2022/11/26 11:31:54;;;;;;;123.18;93.30;;;20.40;47.40;;;;;;4788774;55;21546;-32
2022/11/26 11:37:19;;;;;;;117.75;90.80;;;20.40;47.50;;;;;;5083844;55;21530;-36
2022/11/26 11:42:28;;;;;;;124.28;93.80;;;20.40;47.50;;;;;;4910221;55;21542;-28
2022/11/26 11:47:43;;;;;;;124.68;94.30;;;20.40;47.50;;;;;;5114576;55;21602;-36
2022/11/26 11:56:30;;;;;;;128.73;94.62;;;20.40;47.50;;;;;;5003942;55;21572;-35
2022/11/26 12:02:01;;;;;;;125.53;95.07;;;20.40;47.60;;;;;;4926358;55;21099;-40
2022/11/26 12:09:44;;;;;;;128.87;96.82;;;20.40;47.60;;;;;;5065352;55;21064;-40
2022/11/26 12:15:02;;;;;;;130.63;97.53;;;20.40;47.70;;;;;;4695548;59;21059;-43
2022/11/26 12:20:24;;;;;;;138.27;104.03;;;20.50;47.70;;;;;;4695292;59;21004;-46
2022/11/26 12:25:36;;;;;;;136.32;101.15;;;20.40;47.70;;;;;;4693708;56;21020;-39
2022/11/26 12:33:29;;;;;;;136.55;103.62;;;20.50;47.80;;;;;;4836828;55;21008;-32
2022/11/26 12:38:54;;;;;;;142.52;105.35;;;20.40;47.80;;;;;;4695306;59;21072;-42
2022/11/26 12:44:41;;;;;;;140.75;104.12;;;20.50;47.90;;;;;;4865675;55;21636;-39
2022/11/26 12:50:17;;;;;;;146.27;106.70;;;20.40;48.50;;;;;;4925934;55;21000;-33
2022/11/26 12:55:34;;;;;;;149.90;106.68;;;20.40;48.00;;;;;;4783494;55;21028;-41
2022/11/26 13:00:36;;;;;;;147.52;106.28;;;20.50;48.10;;;;;;4884323;55;21166;-38
2022/11/26 13:07:26;;;;;;;152.02;111.50;;;20.40;48.00;;;;;;4695208;59;21092;-41
2022/11/26 13:15:40;;;;;;;153.60;111.37;;;20.40;48.10;;;;;;5027434;55;21455;-36
2022/11/26 13:27:48;;;;;;;147.00;108.63;;;20.50;48.20;;;;;;4739171;55;20989;-37
2022/11/26 13:35:38;;;;;;;159.07;112.55;;;20.40;48.20;;;;;;5040221;55;21467;-42
2022/11/26 13:43:56;;;;;;;153.90;113.65;;;20.40;48.30;;;;;;4827566;55;21012;-33
2022/11/26 13:49:10;;;;;;;156.20;112.85;;;20.40;48.50;;;;;;4695259;59;21535;-43
2022/11/26 13:54:26;;;;;;;153.82;112.25;;;20.50;48.50;;;;;;4788842;55;21068;-39
2022/11/26 13:59:29;;;;;;;149.52;107.82;;;20.40;48.50;;;;;;4865040;55;21282;-34
2022/11/26 14:05:14;;;;;;;162.27;114.88;;;20.40;48.50;;;;;;4694773;55;21521;-39
2022/11/26 14:17:25;;;;;;;158.07;114.88;;;20.40;48.60;;;;;;4713240;55;21020;-47
2022/11/26 14:22:36;;;;;;;163.75;118.45;;;20.40;48.60;;;;;;4744253;55;21097;-41
2022/11/26 14:27:48;;;;;;;168.68;123.10;;;20.40;48.60;;;;;;4742675;55;21087;-39
2022/11/26 14:33:14;;;;;;;164.00;117.68;;;20.50;48.70;;;;;;4855109;55;21015;-44
2022/11/26 14:38:34;;;;;;;165.12;117.37;;;20.50;48.70;;;;;;4726211;55;21024;-47
2022/11/26 14:43:35;;;;;;;165.90;121.75;;;20.50;48.80;;;;;;4694676;59;21546;-36
2022/11/26 14:48:42;;;;;;;167.00;120.37;;;20.40;48.80;;;;;;4776865;55;21098;-41
2022/11/26 14:53:47;;;;;;;173.62;125.80;;;20.50;48.80;;;;;;4779526;55;21088;-36
2022/11/26 14:58:54;;;;;;;170.43;119.95;;;20.50;48.80;;;;;;4788326;55;21483;-40
2022/11/26 15:04:04;;;;;;;174.68;124.40;;;20.40;48.80;;;;;;4728802;55;21090;-37
2022/11/26 15:09:14;;;;;;;175.75;124.82;;;20.40;48.80;;;;;;4793141;55;21059;-46
2022/11/26 15:14:58;;;;;;;172.75;124.00;;;20.50;48.90;;;;;;4819775;55;21111;-35
2022/11/26 15:20:02;;;;;;;176.90;124.85;;;20.40;48.90;;;;;;4785649;55;20988;-43
2022/11/26 15:25:04;;;;;;;172.80;126.15;;;20.40;48.90;;;;;;4786656;55;21466;-45
2022/11/26 15:31:07;;;;;;;175.35;125.82;;;20.50;49.00;;;;;;4708601;55;21011;-49
2022/11/26 15:36:09;;;;;;;173.23;123.70;;;20.40;48.90;;;;;;4815808;55;21016;-34
2022/11/26 15:41:19;;;;;;;185.18;131.25;;;20.40;49.00;;;;;;4754009;55;21012;-36
2022/11/26 15:46:30;;;;;;;186.80;130.70;;;20.50;49.00;;;;;;4754097;55;21518;-32
2022/11/26 15:51:36;;;;;;;181.77;130.23;;;20.40;48.80;;;;;;4696757;55;21012;-37
2022/11/26 15:56:38;;;;;;;186.20;128.77;;;20.40;49.00;;;;;;4772881;55;21028;-44
2022/11/26 16:01:44;;;;;;;191.12;133.10;;;20.40;49.10;;;;;;4694999;55;21008;-34
2022/11/26 16:06:44;;;;;;;179.02;129.85;;;20.40;49.10;;;;;;4706627;55;20964;-35
2022/11/26 16:11:57;;;;;;;188.35;132.12;;;20.50;49.10;;;;;;4755422;55;21012;-44
2022/11/26 16:17:02;;;;;;;183.57;129.07;;;20.50;49.10;;;;;;4744677;55;21059;-33
2022/11/26 16:22:04;;;;;;;179.05;131.50;;;20.50;49.20;;;;;;4852840;55;21024;-42
2022/11/26 16:28:57;;;;;;;190.20;131.90;;;20.50;49.20;;;;;;4707469;55;21020;-39
2022/11/26 16:33:58;;;;;;;183.00;132.85;;;20.40;49.10;;;;;;4711130;55;20988;-43
2022/11/26 16:38:59;;;;;;;184.73;132.05;;;20.40;49.10;;;;;;4955640;55;21056;-34
2022/11/26 16:44:00;;;;;;;186.90;132.55;;;20.40;49.20;;;;;;4694525;59;21565;-35
2022/11/26 16:49:00;;;;;;;189.50;135.23;;;20.50;49.20;;;;;;4768070;55;21471;-36
2022/11/26 16:54:01;;;;;;;188.90;135.93;;;20.40;49.20;;;;;;4698963;55;21040;-34
2022/11/26 16:59:12;;;;;;;194.57;135.37;;;20.40;49.30;;;;;;4694930;59;21020;-38
2022/11/26 17:04:13;;;;;;;193.30;139.27;;;20.50;50.00;;;;;;4826714;55;21028;-38
2022/11/26 17:09:18;;;;;;;188.82;136.57;;;20.40;49.20;;;;;;4778830;55;21024;-31
2022/11/26 17:14:19;;;;;;;195.82;139.05;;;20.40;49.20;;;;;;4762257;55;21060;-40
2022/11/26 17:19:20;;;;;;;190.50;137.62;;;20.40;49.30;;;;;;4732217;55;21027;-34
2022/11/26 17:24:21;;;;;;;193.32;138.15;;;20.50;49.30;;;;;;4876219;55;21056;-28
2022/11/26 17:29:22;;;;;;;190.38;136.02;;;20.40;49.30;;;;;;4754197;55;21538;-33
2022/11/26 17:34:23;;;;;;;193.60;137.05;;;20.40;49.30;;;;;;4780045;55;21494;-38
2022/11/26 17:39:23;;;;;;;194.40;135.80;;;20.40;49.30;;;;;;4810590;55;21016;-39
2022/11/26 17:44:24;;;;;;;192.62;135.43;;;20.50;49.60;;;;;;4776889;55;21008;-45
2022/11/26 17:49:25;;;;;;;194.15;135.70;;;20.40;49.30;;;;;;4776432;55;21068;-46
2022/11/26 17:54:26;;;;;;;202.62;139.20;;;20.40;49.30;;;;;;4730289;55;21024;-31
2022/11/26 17:59:27;;;;;;;199.52;140.27;;;20.40;49.30;;;;;;4813985;55;21597;-40
2022/11/26 18:04:28;;;;;;;196.12;139.27;;;20.40;49.30;;;;;;4694337;59;21135;-39
2022/11/26 18:09:29;;;;;;;196.60;137.82;;;20.50;49.40;;;;;;4801590;55;21080;-35
2022/11/26 18:14:34;;;;;;;197.10;139.80;;;20.40;49.30;;;;;;4784506;55;21059;-33
2022/11/26 18:19:35;;;;;;;186.02;133.75;;;20.40;49.30;;;;;;4839174;55;21553;-30
2022/11/26 18:24:36;;;;;;;193.75;140.02;;;20.40;49.30;;;;;;4870056;55;21017;-32
2022/11/26 18:29:36;;;;;;;200.40;140.85;;;20.50;49.40;;;;;;4774169;55;21063;-32
2022/11/26 18:34:38;;;;;;;196.02;139.73;;;20.50;49.40;;;;;;4694687;59;21552;-42
2022/11/26 18:39:39;;;;;;;194.95;140.45;;;20.50;49.40;;;;;;4723238;55;21007;-39
2022/11/26 18:44:41;;;;;;;192.02;138.20;;;20.40;49.30;;;;;;4736859;55;21068;-36
2022/11/26 18:49:42;;;;;;;200.65;140.90;;;20.40;49.30;;;;;;4695380;59;21032;-35
2022/11/26 18:54:43;;;;;;;196.12;141.12;;;20.40;49.30;;;;;;4694352;55;21012;-40
2022/11/26 18:59:45;;;;;;;195.60;138.77;;;20.40;49.40;;;;;;4812760;55;21020;-32
2022/11/26 19:04:46;;;;;;;198.48;142.60;;;20.40;49.40;;;;;;4806072;55;21577;-43
2022/11/26 19:09:47;;;;;;;208.77;144.87;;;20.50;49.40;;;;;;4848173;55;21032;-39
2022/11/26 19:14:48;;;;;;;204.90;143.80;;;20.50;49.40;;;;;;4866841;55;21491;-35
2022/11/26 19:19:49;;;;;;;205.60;142.82;;;20.50;49.50;;;;;;4754517;55;21067;-31
2022/11/26 19:24:50;;;;;;;195.73;136.43;;;20.50;49.40;;;;;;4694108;59;21080;-38
2022/11/26 19:29:50;;;;;;;200.40;143.00;;;20.50;49.40;;;;;;4783725;55;21055;-31
2022/11/26 19:34:51;;;;;;;200.95;146.65;;;20.40;49.40;;;;;;4861534;55;21004;-27
2022/11/26 19:39:52;;;;;;;201.50;141.77;;;20.40;49.40;;;;;;4717569;55;21550;-36
2022/11/26 19:44:53;;;;;;;199.40;139.82;;;20.50;49.40;;;;;;4693996;59;21020;-35
2022/11/26 19:49:54;;;;;;;205.40;145.87;;;20.40;50.00;;;;;;4858405;55;21060;-30
2022/11/26 19:54:55;;;;;;;206.32;146.10;;;20.40;49.60;;;;;;4693979;59;21076;-31
2022/11/26 19:59:55;;;;;;;201.25;145.43;;;20.40;50.00;;;;;;4695090;56;21000;-40
2022/11/26 20:04:56;;;;;;;208.25;147.45;;;20.40;49.40;;;;;;4726250;55;21100;-38
2022/11/26 20:09:57;;;;;;;211.52;149.85;;;20.40;49.40;;;;;;4836800;55;21486;-41
2022/11/26 20:14:58;;;;;;;207.57;150.80;;;20.40;49.40;;;;;;4811431;55;21067;-48
2022/11/26 20:19:58;;;;;;;210.27;146.25;;;20.40;49.40;;;;;;4925847;55;21486;-33
2022/11/26 20:24:59;;;;;;;206.13;147.87;;;20.40;49.40;;;;;;4772014;55;21004;-32
2022/11/26 20:30:00;;;;;;;202.82;146.43;;;20.50;49.70;;;;;;4695247;59;21012;-33
2022/11/26 20:35:02;;;;;;;208.02;149.20;;;20.40;49.40;;;;;;4909616;55;21000;-42
2022/11/26 20:40:05;;;;;;;204.00;145.75;;;20.40;49.90;;;;;;4968269;55;22097;-35
2022/11/26 20:45:06;;;;;;;210.35;149.02;;;20.40;49.40;;;;;;4806826;55;21008;-38
2022/11/26 20:50:09;;;;;;;206.32;149.55;;;20.50;49.60;;;;;;4821635;55;21020;-46
2022/11/26 20:55:10;;;;;;;200.70;145.73;;;20.40;49.40;;;;;;4722290;55;21584;-39
2022/11/26 21:00:15;;;;;;;194.02;141.73;;;20.40;49.30;;;;;;4719476;55;21067;-36
2022/11/26 21:05:17;;;;;;;203.35;145.00;;;20.40;49.30;;;;;;4693831;59;21648;-46
2022/11/26 21:10:19;;;;;;;198.82;143.48;;;20.40;49.30;;;;;;4977725;55;21573;-41
2022/11/26 21:15:21;;;;;;;201.77;147.18;;;20.40;49.40;;;;;;4697337;55;21605;-38
2022/11/26 21:20:22;;;;;;;203.90;145.98;;;20.40;49.30;;;;;;4828336;55;21016;-32
2022/11/26 21:25:23;;;;;;;202.15;142.40;;;20.50;49.40;;;;;;4694275;59;21015;-32
2022/11/26 21:30:24;;;;;;;204.13;148.20;;;20.50;50.00;;;;;;4876132;55;21008;-42
2022/11/26 21:35:25;;;;;;;196.70;144.57;;;20.40;49.30;;;;;;4744379;55;21486;-31
2022/11/26 21:40:29;;;;;;;199.65;144.57;;;20.40;49.30;;;;;;4694545;59;21060;-33
2022/11/26 21:45:29;;;;;;;202.25;145.35;;;20.40;49.60;;;;;;4733302;55;21000;-30
2022/11/26 21:50:30;;;;;;;199.85;146.55;;;20.40;49.40;;;;;;5005768;55;21099;-35
2022/11/26 21:55:31;;;;;;;190.07;139.43;;;20.40;49.30;;;;;;4916128;55;21060;-36
2022/11/26 22:00:32;;;;;;;191.23;138.15;;;20.40;49.20;;;;;;4732765;55;21068;-45
2022/11/26 22:05:32;;;;;;;206.10;146.70;;;20.40;49.30;;;;;;4850955;55;20985;-43
2022/11/26 22:10:33;;;;;;;195.55;144.55;;;20.40;49.30;;;;;;4842545;55;21530;-42
2022/11/26 22:15:34;;;;;;;204.25;146.43;;;20.40;49.20;;;;;;4713629;55;21565;-31
2022/11/26 22:20:35;;;;;;;198.98;143.75;;;20.40;49.20;;;;;;4776516;55;21056;-44
2022/11/26 22:25:36;;;;;;;191.55;140.55;;;20.40;49.30;;;;;;4710926;55;21072;-29
2022/11/26 22:30:36;;;;;;;197.77;144.32;;;20.40;49.20;;;;;;4752498;55;21019;-28
2022/11/26 22:35:37;;;;;;;195.18;143.82;;;20.40;49.20;;;;;;4917448;55;20980;-38
2022/11/26 22:40:38;;;;;;;194.25;142.00;;;20.40;49.20;;;;;;4746866;55;21072;-39
2022/11/26 22:45:39;;;;;;;198.73;143.68;;;20.40;49.20;;;;;;4743588;55;21538;-47
2022/11/26 22:50:40;;;;;;;198.80;143.52;;;20.40;49.20;;;;;;4746719;55;21036;-40
2022/11/26 22:55:48;;;;;;;197.73;142.77;;;20.40;49.30;;;;;;4910256;55;21054;-41
2022/11/26 23:01:07;;;;;;;200.55;143.15;;;20.40;49.30;;;;;;4732886;55;21004;-41
2022/11/26 23:06:09;;;;;;;202.13;144.82;;;20.40;49.20;;;;;;4779356;55;21011;-43
2022/11/26 23:11:25;;;;;;;193.77;141.77;;;20.40;49.20;;;;;;4859249;55;21012;-32
2022/11/26 23:16:26;;;;;;;201.07;142.00;;;20.40;49.20;;;;;;4704204;55;21502;-38
2022/11/26 23:21:30;;;;;;;197.45;144.37;;;20.40;49.20;;;;;;4746650;55;21035;-41
2022/11/26 23:26:33;;;;;;;196.70;141.57;;;20.40;49.30;;;;;;5169516;55;20995;-33
2022/11/26 23:31:39;;;;;;;197.40;140.73;;;20.40;49.20;;;;;;4858672;55;21063;-38
2022/11/26 23:36:41;;;;;;;198.60;144.77;;;20.40;49.20;;;;;;4760348;55;20992;-35
2022/11/26 23:41:42;;;;;;;191.82;139.73;;;20.40;49.20;;;;;;4695216;59;21012;-41
2022/11/26 23:46:43;;;;;;;200.82;143.82;;;20.40;49.20;;;;;;5170323;55;21458;-30
2022/11/26 23:51:44;;;;;;;205.65;146.00;;;20.40;49.20;;;;;;5023872;55;21067;-32
2022/11/26 23:56:45;;;;;;;200.77;143.40;;;20.40;49.20;;;;;;4705627;55;21481;-29
